createdAt,value
2022-10-08T00:00:21.036Z,52.60
2022-10-08T00:01:12.748Z,53.20
2022-10-08T00:02:04.631Z,53.80
2022-10-08T00:02:56.345Z,54.30
2022-10-08T00:03:48.201Z,55.10
2022-10-08T00:04:40.019Z,55.00
2022-10-08T00:05:31.657Z,54.10
2022-10-08T00:06:23.416Z,54.80
2022-10-08T00:07:15.172Z,55.00
2022-10-08T00:08:06.974Z,53.50
2022-10-08T00:08:58.715Z,54.70
2022-10-08T00:09:50.500Z,54.80
2022-10-08T00:10:42.242Z,54.80
2022-10-08T00:11:34.055Z,54.30
2022-10-08T00:12:25.779Z,53.00
2022-10-08T00:13:17.576Z,52.30
2022-10-08T00:14:09.357Z,52.20
2022-10-08T00:15:01.108Z,54.60
2022-10-08T00:15:52.846Z,53.90
2022-10-08T00:16:44.677Z,53.90
2022-10-08T00:17:36.396Z,54.60
2022-10-08T00:18:28.177Z,54.00
2022-10-08T00:19:19.943Z,52.70
2022-10-08T00:20:11.702Z,52.20
2022-10-08T00:21:03.454Z,52.60
2022-10-08T00:21:55.238Z,53.10
2022-10-08T00:22:47.145Z,53.60
2022-10-08T00:23:38.770Z,53.60
2022-10-08T00:24:30.507Z,53.40
2022-10-08T00:25:22.219Z,53.30
2022-10-08T00:26:14.054Z,53.00
2022-10-08T00:27:05.812Z,53.00
2022-10-08T00:27:57.566Z,54.40
2022-10-08T00:28:49.340Z,54.70
2022-10-08T00:29:41.090Z,54.60
2022-10-08T00:30:32.811Z,54.60
2022-10-08T00:31:24.730Z,54.70
2022-10-08T00:32:16.393Z,54.30
2022-10-08T00:33:08.142Z,54.40
2022-10-08T00:33:59.917Z,54.70
2022-10-08T00:34:51.668Z,54.50
2022-10-08T00:35:43.450Z,54.30
2022-10-08T00:36:35.187Z,54.10
2022-10-08T00:37:26.973Z,54.10
2022-10-08T00:38:18.714Z,54.20
2022-10-08T00:39:10.444Z,54.10
2022-10-08T00:40:02.206Z,54.00
2022-10-08T00:40:54.016Z,53.80
2022-10-08T00:41:45.784Z,54.10
2022-10-08T00:42:37.533Z,54.00
2022-10-08T00:43:29.292Z,53.90
2022-10-08T00:44:21.052Z,53.80
2022-10-08T00:45:12.743Z,53.70
2022-10-08T00:46:04.678Z,53.70
2022-10-08T00:46:56.318Z,53.50
2022-10-08T00:47:48.080Z,53.50
2022-10-08T00:48:39.830Z,53.60
2022-10-08T00:49:31.588Z,53.50
2022-10-08T00:50:23.338Z,53.60
2022-10-08T00:51:15.102Z,53.70
2022-10-08T00:52:06.865Z,53.80
2022-10-08T00:52:58.651Z,53.90
2022-10-08T00:53:50.380Z,53.90
2022-10-08T00:54:42.112Z,53.70
2022-10-08T00:55:33.869Z,53.80
2022-10-08T00:56:25.646Z,53.80
2022-10-08T00:57:17.380Z,53.90
2022-10-08T00:58:09.156Z,53.60
2022-10-08T00:59:00.907Z,53.60
2022-10-08T00:59:52.609Z,53.50
2022-10-08T01:00:44.503Z,53.70
2022-10-08T01:01:36.186Z,53.70
2022-10-08T01:02:28.005Z,53.70
2022-10-08T01:03:19.688Z,53.70
2022-10-08T01:04:11.440Z,53.70
2022-10-08T01:05:03.286Z,53.50
2022-10-08T01:05:54.948Z,53.40
2022-10-08T01:06:46.719Z,53.20
2022-10-08T01:07:38.463Z,52.70
2022-10-08T01:08:30.244Z,52.50
2022-10-08T01:09:22.000Z,52.80
2022-10-08T01:10:13.758Z,52.30
2022-10-08T01:11:05.507Z,52.30
2022-10-08T01:11:57.287Z,52.30
2022-10-08T01:12:49.312Z,52.40
2022-10-08T01:13:40.785Z,53.80
2022-10-08T01:14:32.442Z,54.00
2022-10-08T01:15:24.290Z,53.30
2022-10-08T01:16:16.145Z,52.80
2022-10-08T01:17:07.808Z,52.90
2022-10-08T01:17:59.571Z,53.40
2022-10-08T01:18:51.332Z,53.90
2022-10-08T01:19:42.994Z,53.70
2022-10-08T01:20:34.844Z,53.20
2022-10-08T01:21:26.582Z,53.10
2022-10-08T01:22:18.365Z,52.60
2022-10-08T01:23:10.107Z,53.40
2022-10-08T01:24:01.872Z,53.20
2022-10-08T01:24:53.631Z,53.30
2022-10-08T01:25:45.391Z,53.50
2022-10-08T01:26:37.160Z,53.80
2022-10-08T01:27:28.905Z,54.00
2022-10-08T01:28:20.722Z,53.80
2022-10-08T01:29:12.390Z,53.50
2022-10-08T01:30:04.112Z,52.90
2022-10-08T01:30:55.951Z,53.20
2022-10-08T01:31:47.792Z,53.00
2022-10-08T01:32:39.468Z,52.90
2022-10-08T01:33:31.204Z,52.90
2022-10-08T01:34:23.000Z,53.20
2022-10-08T01:35:14.737Z,53.30
2022-10-08T01:36:06.519Z,52.70
2022-10-08T01:36:58.259Z,53.00
2022-10-08T01:37:50.028Z,54.10
2022-10-08T01:38:41.756Z,54.00
2022-10-08T01:39:33.527Z,54.40
2022-10-08T01:40:25.285Z,53.70
2022-10-08T01:41:17.060Z,52.70
2022-10-08T01:42:08.806Z,52.80
2022-10-08T01:43:00.509Z,54.40
2022-10-08T01:43:52.251Z,54.40
2022-10-08T01:44:44.079Z,54.40
2022-10-08T01:45:35.865Z,54.60
2022-10-08T01:46:27.606Z,54.30
2022-10-08T01:47:19.347Z,54.00
2022-10-08T01:48:11.154Z,54.00
2022-10-08T01:49:02.825Z,54.40
2022-10-08T01:49:54.670Z,54.40
2022-10-08T01:50:46.404Z,54.10
2022-10-08T01:51:38.199Z,53.50
2022-10-08T01:52:29.926Z,53.10
2022-10-08T01:53:21.697Z,52.70
2022-10-08T01:54:13.443Z,53.00
2022-10-08T01:55:05.216Z,52.70
2022-10-08T01:55:56.978Z,52.50
2022-10-08T01:56:48.741Z,52.40
2022-10-08T01:57:40.482Z,52.20
2022-10-08T01:58:32.255Z,52.10
2022-10-08T01:59:24.011Z,51.90
2022-10-08T02:00:15.779Z,53.80
2022-10-08T02:01:07.670Z,53.90
2022-10-08T02:01:59.363Z,53.00
2022-10-08T02:02:51.045Z,52.70
2022-10-08T02:03:42.730Z,52.90
2022-10-08T02:04:34.594Z,52.60
2022-10-08T02:05:26.327Z,52.60
2022-10-08T02:06:18.084Z,52.80
2022-10-08T02:07:09.857Z,52.80
2022-10-08T02:08:01.586Z,52.40
2022-10-08T02:08:53.377Z,52.50
2022-10-08T02:09:45.105Z,52.30
2022-10-08T02:10:36.888Z,52.20
2022-10-08T02:11:28.639Z,52.30
2022-10-08T02:12:20.396Z,52.60
2022-10-08T02:13:12.156Z,53.80
2022-10-08T02:14:03.917Z,54.00
2022-10-08T02:14:55.668Z,53.40
2022-10-08T02:15:47.429Z,52.90
2022-10-08T02:16:39.239Z,52.90
2022-10-08T02:17:30.959Z,52.90
2022-10-08T02:18:22.684Z,52.80
2022-10-08T02:19:14.475Z,53.50
2022-10-08T02:20:06.119Z,53.30
2022-10-08T02:20:57.979Z,52.70
2022-10-08T02:21:49.737Z,52.50
2022-10-08T02:22:41.500Z,52.80
2022-10-08T02:23:33.244Z,52.70
2022-10-08T02:24:25.020Z,52.40
2022-10-08T02:25:16.773Z,52.20
2022-10-08T02:26:08.533Z,51.90
2022-10-08T02:27:00.316Z,51.80
2022-10-08T02:27:52.060Z,51.60
2022-10-08T02:28:43.849Z,51.80
2022-10-08T02:29:35.576Z,52.80
2022-10-08T02:30:27.317Z,52.50
2022-10-08T02:31:19.164Z,52.20
2022-10-08T02:32:10.902Z,52.20
2022-10-08T02:33:02.530Z,52.20
2022-10-08T02:33:54.368Z,52.20
2022-10-08T02:34:46.137Z,52.50
2022-10-08T02:35:37.870Z,52.40
2022-10-08T02:36:29.683Z,52.60
2022-10-08T02:37:21.394Z,52.50
2022-10-08T02:38:13.354Z,53.20
2022-10-08T02:39:04.910Z,53.40
2022-10-08T02:39:56.693Z,52.80
2022-10-08T02:40:48.460Z,53.20
2022-10-08T02:41:40.225Z,53.00
2022-10-08T02:42:31.959Z,52.80
2022-10-08T02:43:23.749Z,52.50
2022-10-08T02:44:15.491Z,52.50
2022-10-08T02:45:07.268Z,52.40
2022-10-08T02:45:59.035Z,52.20
2022-10-08T02:46:50.779Z,52.40
2022-10-08T02:47:42.448Z,52.40
2022-10-08T02:48:34.301Z,52.20
2022-10-08T02:49:26.038Z,52.70
2022-10-08T02:50:17.832Z,53.50
2022-10-08T02:51:09.574Z,53.00
2022-10-08T02:52:01.332Z,52.50
2022-10-08T02:52:53.077Z,52.80
2022-10-08T02:53:44.856Z,52.80
2022-10-08T02:54:36.610Z,53.10
2022-10-08T02:55:28.375Z,52.70
2022-10-08T02:56:20.135Z,52.40
2022-10-08T02:57:11.891Z,51.90
2022-10-08T02:58:03.674Z,52.00
2022-10-08T02:58:55.414Z,52.80
2022-10-08T02:59:47.162Z,52.80
2022-10-08T03:00:38.934Z,53.90
2022-10-08T03:01:30.812Z,54.30
2022-10-08T03:02:22.503Z,54.30
2022-10-08T03:03:14.201Z,53.50
2022-10-08T03:04:05.969Z,53.30
2022-10-08T03:04:57.731Z,53.80
2022-10-08T03:05:49.511Z,53.40
2022-10-08T03:06:41.253Z,53.30
2022-10-08T03:07:32.937Z,53.10
2022-10-08T03:08:24.758Z,53.50
2022-10-08T03:09:16.537Z,53.10
2022-10-08T03:10:08.276Z,53.00
2022-10-08T03:11:00.063Z,52.80
2022-10-08T03:11:51.795Z,53.30
2022-10-08T03:12:43.634Z,53.30
2022-10-08T03:13:35.332Z,53.10
2022-10-08T03:14:27.090Z,53.00
2022-10-08T03:15:18.847Z,52.90
2022-10-08T03:16:10.692Z,53.10
2022-10-08T03:17:02.412Z,53.50
2022-10-08T03:17:54.131Z,53.30
2022-10-08T03:18:45.893Z,53.50
2022-10-08T03:19:37.651Z,53.50
2022-10-08T03:20:29.392Z,53.10
2022-10-08T03:21:21.171Z,54.10
2022-10-08T03:22:12.831Z,54.40
2022-10-08T03:23:04.695Z,53.70
2022-10-08T03:23:56.459Z,53.40
2022-10-08T03:24:48.241Z,54.10
2022-10-08T03:25:39.973Z,54.50
2022-10-08T03:26:31.754Z,54.00
2022-10-08T03:27:23.508Z,53.90
2022-10-08T03:28:15.401Z,54.60
2022-10-08T03:29:07.021Z,54.50
2022-10-08T03:29:58.813Z,54.60
2022-10-08T03:30:50.569Z,54.60
2022-10-08T03:31:42.325Z,54.20
2022-10-08T03:32:34.063Z,53.90
2022-10-08T03:33:25.850Z,53.80
2022-10-08T03:34:17.600Z,53.50
2022-10-08T03:35:09.388Z,53.70
2022-10-08T03:36:01.027Z,53.60
2022-10-08T03:36:52.820Z,53.80
2022-10-08T03:37:44.646Z,54.50
2022-10-08T03:38:36.414Z,54.70
2022-10-08T03:39:28.170Z,54.40
2022-10-08T03:40:19.937Z,54.40
2022-10-08T03:41:11.705Z,54.60
2022-10-08T03:42:03.457Z,54.90
2022-10-08T03:42:55.213Z,54.90
2022-10-08T03:43:47.000Z,54.80
2022-10-08T03:44:38.751Z,54.40
2022-10-08T03:45:30.526Z,54.20
2022-10-08T03:46:22.333Z,54.10
2022-10-08T03:47:14.050Z,54.10
2022-10-08T03:48:05.804Z,54.40
2022-10-08T03:48:57.561Z,54.20
2022-10-08T03:49:49.312Z,54.80
2022-10-08T03:50:41.079Z,55.00
2022-10-08T03:51:32.818Z,54.60
2022-10-08T03:52:24.603Z,54.50
2022-10-08T03:53:16.406Z,54.40
2022-10-08T03:54:08.137Z,55.10
2022-10-08T03:54:59.895Z,55.10
2022-10-08T03:55:51.650Z,54.80
2022-10-08T03:56:43.344Z,55.20
2022-10-08T03:57:35.174Z,55.30
2022-10-08T03:58:26.931Z,55.30
2022-10-08T03:59:18.707Z,55.20
2022-10-08T04:00:10.481Z,55.00
2022-10-08T04:01:02.267Z,54.90
2022-10-08T04:01:54.030Z,55.10
2022-10-08T04:02:46.199Z,55.50
2022-10-08T04:03:37.525Z,55.60
2022-10-08T04:04:29.291Z,55.50
2022-10-08T04:05:21.033Z,55.50
2022-10-08T04:06:12.718Z,55.50
2022-10-08T04:07:04.562Z,55.50
2022-10-08T04:07:56.316Z,55.50
2022-10-08T04:08:48.071Z,55.40
2022-10-08T04:09:39.838Z,55.50
2022-10-08T04:10:31.605Z,55.50
2022-10-08T04:11:23.366Z,55.50
2022-10-08T04:12:15.114Z,55.40
2022-10-08T04:13:06.879Z,55.20
2022-10-08T04:13:58.617Z,55.20
2022-10-08T04:14:50.418Z,55.30
2022-10-08T04:15:42.200Z,55.40
2022-10-08T04:16:33.925Z,55.50
2022-10-08T04:17:25.659Z,55.50
2022-10-08T04:18:17.457Z,55.70
2022-10-08T04:19:09.209Z,55.90
2022-10-08T04:20:00.977Z,55.70
2022-10-08T04:20:52.634Z,55.60
2022-10-08T04:21:44.472Z,55.60
2022-10-08T04:22:36.223Z,56.00
2022-10-08T04:23:28.010Z,56.00
2022-10-08T04:24:19.757Z,55.80
2022-10-08T04:25:11.532Z,55.70
2022-10-08T04:26:03.190Z,56.10
2022-10-08T04:26:55.056Z,56.40
2022-10-08T04:27:46.791Z,55.90
2022-10-08T04:28:39.035Z,55.70
2022-10-08T04:29:30.317Z,55.70
2022-10-08T04:30:22.101Z,56.20
2022-10-08T04:31:13.892Z,56.40
2022-10-08T04:32:05.614Z,56.40
2022-10-08T04:32:57.359Z,56.30
2022-10-08T04:33:49.062Z,56.10
2022-10-08T04:34:40.906Z,55.90
2022-10-08T04:35:32.579Z,56.30
2022-10-08T04:36:24.420Z,56.40
2022-10-08T04:37:16.180Z,56.30
2022-10-08T04:38:07.940Z,56.40
2022-10-08T04:38:59.699Z,56.30
2022-10-08T04:39:51.473Z,56.20
2022-10-08T04:40:43.175Z,56.50
2022-10-08T04:41:34.988Z,56.60
2022-10-08T04:42:26.767Z,56.70
2022-10-08T04:43:18.547Z,56.70
2022-10-08T04:44:10.280Z,56.80
2022-10-08T04:45:02.039Z,56.90
2022-10-08T04:45:53.843Z,56.40
2022-10-08T04:46:45.620Z,56.30
2022-10-08T04:47:37.355Z,56.80
2022-10-08T04:48:29.091Z,56.90
2022-10-08T04:49:20.867Z,56.70
2022-10-08T04:50:12.549Z,56.60
2022-10-08T04:51:09.409Z,56.40
2022-10-08T04:51:56.132Z,56.40
2022-10-08T04:52:48.156Z,56.60
2022-10-08T04:53:39.665Z,56.60
2022-10-08T04:54:31.432Z,56.90
2022-10-08T04:55:23.108Z,56.80
2022-10-08T04:56:14.951Z,57.00
2022-10-08T04:57:06.725Z,57.00
2022-10-08T04:57:58.478Z,57.00
2022-10-08T04:58:50.234Z,57.20
2022-10-08T05:00:05.841Z,57.10
2022-10-08T05:00:33.764Z,56.80
2022-10-08T05:01:25.688Z,56.90
2022-10-08T05:02:17.372Z,57.10
2022-10-08T05:03:09.118Z,57.10
2022-10-08T05:04:00.810Z,56.80
2022-10-08T05:04:52.562Z,56.60
2022-10-08T05:05:44.351Z,56.50
2022-10-08T05:06:36.115Z,56.50
2022-10-08T05:07:27.875Z,56.40
2022-10-08T05:08:19.640Z,56.90
2022-10-08T05:09:11.379Z,56.50
2022-10-08T05:10:03.089Z,56.60
2022-10-08T05:10:54.902Z,56.80
2022-10-08T05:11:46.679Z,57.00
2022-10-08T05:12:38.420Z,57.10
2022-10-08T05:13:30.209Z,57.10
2022-10-08T05:14:21.942Z,57.00
2022-10-08T05:15:13.725Z,57.10
2022-10-08T05:16:05.523Z,57.00
2022-10-08T05:16:57.232Z,57.10
2022-10-08T05:17:49.010Z,57.00
2022-10-08T05:18:40.771Z,56.70
2022-10-08T05:19:32.534Z,56.70
2022-10-08T05:20:24.296Z,57.00
2022-10-08T05:21:16.024Z,57.00
2022-10-08T05:22:07.802Z,56.60
2022-10-08T05:22:59.546Z,56.60
2022-10-08T05:23:51.333Z,56.80
2022-10-08T05:24:43.016Z,57.10
2022-10-08T05:25:34.850Z,57.20
2022-10-08T05:26:46.670Z,57.20
2022-10-08T05:27:18.362Z,57.30
2022-10-08T05:28:10.153Z,57.40
2022-10-08T05:29:01.907Z,56.90
2022-10-08T05:29:53.634Z,56.70
2022-10-08T05:30:45.419Z,57.20
2022-10-08T05:31:37.264Z,57.40
2022-10-08T05:32:28.932Z,57.20
2022-10-08T05:33:20.674Z,57.20
2022-10-08T05:34:12.441Z,57.30
2022-10-08T05:35:04.155Z,57.30
2022-10-08T05:35:55.985Z,57.20
2022-10-08T05:36:47.728Z,57.20
2022-10-08T05:37:39.492Z,57.40
2022-10-08T05:38:34.795Z,57.40
2022-10-08T05:39:22.932Z,57.40
2022-10-08T05:40:14.782Z,57.40
2022-10-08T05:41:06.522Z,57.30
2022-10-08T05:41:58.269Z,57.10
2022-10-08T05:42:50.398Z,57.20
2022-10-08T05:43:41.806Z,57.40
2022-10-08T05:44:37.434Z,57.50
2022-10-08T05:45:25.352Z,57.50
2022-10-08T05:46:17.210Z,57.50
2022-10-08T05:47:08.847Z,57.40
2022-10-08T05:48:00.619Z,57.40
2022-10-08T05:48:52.352Z,57.40
2022-10-08T05:49:44.119Z,57.40
2022-10-08T05:50:35.861Z,57.20
2022-10-08T05:51:27.654Z,57.00
2022-10-08T05:52:19.408Z,57.50
2022-10-08T05:53:11.171Z,57.70
2022-10-08T05:54:02.944Z,57.60
2022-10-08T05:54:54.685Z,57.60
2022-10-08T05:55:46.426Z,57.40
2022-10-08T05:56:38.202Z,57.70
2022-10-08T05:57:29.944Z,57.40
2022-10-08T05:58:21.725Z,57.40
2022-10-08T05:59:13.405Z,57.20
2022-10-08T06:00:05.273Z,57.10
2022-10-08T06:00:56.990Z,57.10
2022-10-08T06:01:48.779Z,57.10
2022-10-08T06:02:40.592Z,57.10
2022-10-08T06:03:32.301Z,57.60
2022-10-08T06:04:24.119Z,57.60
2022-10-08T06:05:15.808Z,57.60
2022-10-08T06:06:07.556Z,57.60
2022-10-08T06:06:59.320Z,57.80
2022-10-08T06:07:51.082Z,57.80
2022-10-08T06:08:42.760Z,57.80
2022-10-08T06:09:34.599Z,57.60
2022-10-08T06:10:26.373Z,57.50
2022-10-08T06:11:18.123Z,57.60
2022-10-08T06:12:09.891Z,57.60
2022-10-08T06:13:01.558Z,57.70
2022-10-08T06:13:53.339Z,57.60
2022-10-08T06:14:45.164Z,57.50
2022-10-08T06:15:36.917Z,57.50
2022-10-08T06:16:28.781Z,57.30
2022-10-08T06:17:20.462Z,57.50
2022-10-08T06:18:12.182Z,57.50
2022-10-08T06:19:03.990Z,57.40
2022-10-08T06:19:55.721Z,57.50
2022-10-08T06:20:47.495Z,57.50
2022-10-08T06:21:39.241Z,57.50
2022-10-08T06:22:30.996Z,57.30
2022-10-08T06:23:22.703Z,57.20
2022-10-08T06:24:14.521Z,57.10
2022-10-08T06:25:06.229Z,57.20
2022-10-08T06:25:58.039Z,57.20
2022-10-08T06:26:49.790Z,57.40
2022-10-08T06:27:41.581Z,57.70
2022-10-08T06:28:33.250Z,57.80
2022-10-08T06:29:25.105Z,57.80
2022-10-08T06:30:16.830Z,57.50
2022-10-08T06:31:08.664Z,57.40
2022-10-08T06:32:00.354Z,57.60
2022-10-08T06:32:52.135Z,57.50
2022-10-08T06:33:43.879Z,57.50
2022-10-08T06:34:35.669Z,57.80
2022-10-08T06:35:27.397Z,57.60
2022-10-08T06:36:19.191Z,57.40
2022-10-08T06:37:10.937Z,57.40
2022-10-08T06:38:02.694Z,57.30
2022-10-08T06:38:54.446Z,57.10
2022-10-08T06:39:48.562Z,57.70
2022-10-08T06:40:37.964Z,57.70
2022-10-08T06:41:29.727Z,57.50
2022-10-08T06:42:21.490Z,57.60
2022-10-08T06:43:13.193Z,57.50
2022-10-08T06:44:05.015Z,57.70
2022-10-08T06:45:01.394Z,57.40
2022-10-08T06:45:48.535Z,57.60
2022-10-08T06:46:40.340Z,57.40
2022-10-08T06:47:32.036Z,57.20
2022-10-08T06:48:23.840Z,57.20
2022-10-08T06:49:15.559Z,57.20
2022-10-08T06:50:07.361Z,57.30
2022-10-08T06:50:59.099Z,57.10
2022-10-08T06:51:50.861Z,57.70
2022-10-08T06:52:42.594Z,57.70
2022-10-08T06:53:34.376Z,57.80
2022-10-08T06:54:26.114Z,57.80
2022-10-08T06:55:17.890Z,57.90
2022-10-08T06:56:09.650Z,57.90
2022-10-08T06:57:01.353Z,57.90
2022-10-08T06:57:53.094Z,57.90
2022-10-08T06:58:44.949Z,57.80
2022-10-08T06:59:36.693Z,57.70
2022-10-08T07:00:28.465Z,57.70
2022-10-08T07:01:20.276Z,57.50
2022-10-08T07:02:12.130Z,57.90
2022-10-08T07:03:03.725Z,57.80
2022-10-08T07:03:55.516Z,57.80
2022-10-08T07:04:47.260Z,57.70
2022-10-08T07:05:39.016Z,57.90
2022-10-08T07:06:30.796Z,58.00
2022-10-08T07:07:22.545Z,57.90
2022-10-08T07:08:14.313Z,58.00
2022-10-08T07:09:06.077Z,57.90
2022-10-08T07:09:57.808Z,57.90
2022-10-08T07:10:49.580Z,58.10
2022-10-08T07:11:41.326Z,58.00
2022-10-08T07:12:33.012Z,58.00
2022-10-08T07:13:24.844Z,57.90
2022-10-08T07:14:16.625Z,57.80
2022-10-08T07:15:08.371Z,57.80
2022-10-08T07:16:00.223Z,57.60
2022-10-08T07:16:51.927Z,57.50
2022-10-08T07:17:43.656Z,57.70
2022-10-08T07:18:35.400Z,57.60
2022-10-08T07:19:27.176Z,57.90
2022-10-08T07:20:18.914Z,57.80
2022-10-08T07:21:10.698Z,57.70
2022-10-08T07:22:02.431Z,57.60
2022-10-08T07:22:54.279Z,57.60
2022-10-08T07:23:45.962Z,57.60
2022-10-08T07:24:37.728Z,57.60
2022-10-08T07:25:29.474Z,57.60
2022-10-08T07:26:21.238Z,57.70
2022-10-08T07:27:12.952Z,57.90
2022-10-08T07:28:04.837Z,57.80
2022-10-08T07:28:56.503Z,57.80
2022-10-08T07:29:48.279Z,57.80
2022-10-08T07:30:40.011Z,57.90
2022-10-08T07:31:31.869Z,57.80
2022-10-08T07:32:23.459Z,57.80
2022-10-08T07:33:15.311Z,57.90
2022-10-08T07:34:07.035Z,57.90
2022-10-08T07:35:00.104Z,58.00
2022-10-08T07:35:50.543Z,58.10
2022-10-08T07:36:42.366Z,58.10
2022-10-08T07:37:34.063Z,58.10
2022-10-08T07:38:25.837Z,58.20
2022-10-08T07:39:17.593Z,58.20
2022-10-08T07:40:09.354Z,58.10
2022-10-08T07:41:01.096Z,58.10
2022-10-08T07:41:52.837Z,58.00
2022-10-08T07:42:45.041Z,58.10
2022-10-08T07:43:36.401Z,58.00
2022-10-08T07:44:28.123Z,58.00
2022-10-08T07:45:19.891Z,57.90
2022-10-08T07:46:11.844Z,57.90
2022-10-08T07:47:03.331Z,57.90
2022-10-08T07:47:55.174Z,58.00
2022-10-08T07:48:46.923Z,58.10
2022-10-08T07:49:38.672Z,58.00
2022-10-08T07:50:30.436Z,58.00
2022-10-08T07:51:22.203Z,58.00
2022-10-08T07:52:13.943Z,57.90
2022-10-08T07:53:05.689Z,57.90
2022-10-08T07:54:02.137Z,57.80
2022-10-08T07:54:49.209Z,57.80
2022-10-08T07:55:40.975Z,57.90
2022-10-08T07:56:32.739Z,58.00
2022-10-08T07:57:24.498Z,58.00
2022-10-08T07:58:16.215Z,58.10
2022-10-08T07:59:07.992Z,58.10
2022-10-08T07:59:59.726Z,58.00
2022-10-08T08:00:51.532Z,58.10
2022-10-08T08:01:43.284Z,58.10
2022-10-08T08:02:35.110Z,58.10
2022-10-08T08:03:26.773Z,58.10
2022-10-08T08:04:18.548Z,58.10
2022-10-08T08:05:10.299Z,58.10
2022-10-08T08:06:02.073Z,58.10
2022-10-08T08:06:53.808Z,58.10
2022-10-08T08:07:48.575Z,58.00
2022-10-08T08:08:37.329Z,57.90
2022-10-08T08:09:29.104Z,57.90
2022-10-08T08:10:20.872Z,58.00
2022-10-08T08:11:12.635Z,58.10
2022-10-08T08:12:04.393Z,58.00
2022-10-08T08:12:56.139Z,57.80
2022-10-08T08:13:47.899Z,57.60
2022-10-08T08:14:39.687Z,57.60
2022-10-08T08:15:31.434Z,57.60
2022-10-08T08:16:23.162Z,57.50
2022-10-08T08:17:14.926Z,57.40
2022-10-08T08:18:06.700Z,57.40
2022-10-08T08:18:58.430Z,57.40
2022-10-08T08:19:50.215Z,57.40
2022-10-08T08:20:41.936Z,57.40
2022-10-08T08:21:33.647Z,57.50
2022-10-08T08:22:25.441Z,57.50
2022-10-08T08:23:17.207Z,57.60
2022-10-08T08:24:08.955Z,57.70
2022-10-08T08:25:00.708Z,57.70
2022-10-08T08:25:52.453Z,57.60
2022-10-08T08:26:44.245Z,57.50
2022-10-08T08:27:35.953Z,57.50
2022-10-08T08:28:27.744Z,57.70
2022-10-08T08:29:19.449Z,57.70
2022-10-08T08:30:11.214Z,57.70
2022-10-08T08:31:02.928Z,57.60
2022-10-08T08:31:54.783Z,57.70
2022-10-08T08:32:46.742Z,57.70
2022-10-08T08:33:38.239Z,57.70
2022-10-08T08:34:29.995Z,57.70
2022-10-08T08:35:21.756Z,57.70
2022-10-08T08:36:13.487Z,57.70
2022-10-08T08:37:05.274Z,57.80
2022-10-08T08:37:57.017Z,57.80
2022-10-08T08:38:48.794Z,57.80
2022-10-08T08:39:40.534Z,57.80
2022-10-08T08:40:32.303Z,57.70
2022-10-08T08:41:24.059Z,57.70
2022-10-08T08:42:15.820Z,57.70
2022-10-08T08:43:07.573Z,57.70
2022-10-08T08:43:59.344Z,57.70
2022-10-08T08:44:50.986Z,57.60
2022-10-08T08:45:46.954Z,57.50
2022-10-08T08:46:34.642Z,57.40
2022-10-08T08:47:26.413Z,57.30
2022-10-08T08:48:18.132Z,57.40
2022-10-08T08:49:09.912Z,57.50
2022-10-08T08:50:01.619Z,57.50
2022-10-08T08:50:53.359Z,57.30
2022-10-08T08:51:45.178Z,57.50
2022-10-08T08:52:36.945Z,57.60
2022-10-08T08:53:28.706Z,57.60
2022-10-08T08:54:20.483Z,57.40
2022-10-08T08:55:12.236Z,57.20
2022-10-08T08:56:04.006Z,57.10
2022-10-08T08:56:55.758Z,57.00
2022-10-08T08:57:47.523Z,57.00
2022-10-08T08:58:39.287Z,57.00
2022-10-08T08:59:31.048Z,56.70
2022-10-08T09:00:22.874Z,56.60
2022-10-08T09:01:14.643Z,56.50
2022-10-08T09:02:06.319Z,56.50
2022-10-08T09:02:58.097Z,56.80
2022-10-08T09:03:49.844Z,56.90
2022-10-08T09:04:45.049Z,57.10
2022-10-08T09:05:33.316Z,57.10
2022-10-08T09:06:25.142Z,57.00
2022-10-08T09:07:16.902Z,56.80
2022-10-08T09:08:08.664Z,56.60
2022-10-08T09:09:00.413Z,56.60
2022-10-08T09:09:52.176Z,56.60
2022-10-08T09:10:43.930Z,56.50
2022-10-08T09:11:35.738Z,56.60
2022-10-08T09:12:27.446Z,56.70
2022-10-08T09:13:19.211Z,56.80
2022-10-08T09:14:10.962Z,57.00
2022-10-08T09:15:02.756Z,56.90
2022-10-08T09:15:54.478Z,56.90
2022-10-08T09:16:46.329Z,56.80
2022-10-08T09:17:37.998Z,56.90
2022-10-08T09:18:29.784Z,56.70
2022-10-08T09:19:21.524Z,56.50
2022-10-08T09:20:13.299Z,56.40
2022-10-08T09:21:05.057Z,56.50
2022-10-08T09:21:56.821Z,56.60
2022-10-08T09:22:49.186Z,56.60
2022-10-08T09:23:40.410Z,56.70
2022-10-08T09:24:32.109Z,56.50
2022-10-08T09:25:23.880Z,56.40
2022-10-08T09:26:15.631Z,56.30
2022-10-08T09:27:07.401Z,56.40
2022-10-08T09:27:59.149Z,56.30
2022-10-08T09:28:50.925Z,56.30
2022-10-08T09:29:42.692Z,56.60
2022-10-08T09:30:34.595Z,56.70
2022-10-08T09:31:26.291Z,56.60
2022-10-08T09:32:18.000Z,56.40
2022-10-08T09:33:09.747Z,56.30
2022-10-08T09:34:01.433Z,56.40
2022-10-08T09:34:53.200Z,56.30
2022-10-08T09:35:45.083Z,56.00
2022-10-08T09:36:36.994Z,55.70
2022-10-08T09:37:28.580Z,55.60
2022-10-08T09:38:20.330Z,55.60
2022-10-08T09:39:12.117Z,55.30
2022-10-08T09:40:03.865Z,55.30
2022-10-08T09:40:55.640Z,55.20
2022-10-08T09:41:47.380Z,55.20
2022-10-08T09:42:39.170Z,55.20
2022-10-08T09:43:30.907Z,55.30
2022-10-08T09:44:22.666Z,55.20
2022-10-08T09:45:15.245Z,55.20
2022-10-08T09:46:06.231Z,54.80
2022-10-08T09:46:57.940Z,55.10
2022-10-08T09:47:49.731Z,55.30
2022-10-08T09:48:41.449Z,55.40
2022-10-08T09:49:33.156Z,55.50
2022-10-08T09:50:24.977Z,55.50
2022-10-08T09:51:16.775Z,55.50
2022-10-08T09:52:08.501Z,55.50
2022-10-08T09:53:00.296Z,55.60
2022-10-08T09:53:52.042Z,55.60
2022-10-08T09:54:43.810Z,55.60
2022-10-08T09:55:35.576Z,55.60
2022-10-08T09:56:27.340Z,55.80
2022-10-08T09:57:19.108Z,55.50
2022-10-08T09:58:10.889Z,55.40
2022-10-08T09:59:02.653Z,55.40
2022-10-08T09:59:54.426Z,55.40
2022-10-08T10:00:46.181Z,55.30
2022-10-08T10:01:38.004Z,55.30
2022-10-08T10:02:29.717Z,55.30
2022-10-08T10:03:21.495Z,55.10
2022-10-08T10:04:13.314Z,55.00
2022-10-08T10:05:05.037Z,55.10
2022-10-08T10:05:56.799Z,55.10
2022-10-08T10:06:48.573Z,55.10
2022-10-08T10:07:40.323Z,55.00
2022-10-08T10:08:32.117Z,54.90
2022-10-08T10:09:23.875Z,54.90
2022-10-08T10:10:15.671Z,54.90
2022-10-08T10:11:07.418Z,54.80
2022-10-08T10:11:59.223Z,55.00
2022-10-08T10:12:50.970Z,54.80
2022-10-08T10:13:42.761Z,54.90
2022-10-08T10:14:34.510Z,54.70
2022-10-08T10:15:26.304Z,54.70
2022-10-08T10:16:18.154Z,54.80
2022-10-08T10:17:09.938Z,54.90
2022-10-08T10:18:01.570Z,54.90
2022-10-08T10:18:53.302Z,55.00
2022-10-08T10:19:45.177Z,55.00
2022-10-08T10:20:36.962Z,55.00
2022-10-08T10:21:28.712Z,55.00
2022-10-08T10:22:20.500Z,54.90
2022-10-08T10:23:12.266Z,55.00
2022-10-08T10:24:04.008Z,55.10
2022-10-08T10:24:55.811Z,55.40
2022-10-08T10:25:47.615Z,55.40
2022-10-08T10:26:39.372Z,55.40
2022-10-08T10:27:31.169Z,55.50
2022-10-08T10:28:23.004Z,55.50
2022-10-08T10:29:14.724Z,55.50
2022-10-08T10:30:06.406Z,54.80
2022-10-08T10:30:58.375Z,54.00
2022-10-08T10:31:50.019Z,53.80
2022-10-08T10:32:41.828Z,55.10
2022-10-08T10:33:33.546Z,55.50
2022-10-08T10:34:25.395Z,56.20
2022-10-08T10:35:17.188Z,56.80
2022-10-08T10:36:08.953Z,56.80
2022-10-08T10:37:00.721Z,56.60
2022-10-08T10:37:52.509Z,55.70
2022-10-08T10:38:44.285Z,55.50
2022-10-08T10:39:36.092Z,55.60
2022-10-08T10:40:27.858Z,55.80
2022-10-08T10:41:19.671Z,55.50
2022-10-08T10:42:11.430Z,55.80
2022-10-08T10:43:03.159Z,56.10
2022-10-08T10:43:55.003Z,55.70
2022-10-08T10:44:46.808Z,55.60
2022-10-08T10:45:38.606Z,55.60
2022-10-08T10:46:30.452Z,55.80
2022-10-08T10:47:22.124Z,56.10
2022-10-08T10:48:13.958Z,56.00
2022-10-08T10:49:05.765Z,56.40
2022-10-08T10:49:57.563Z,56.10
2022-10-08T10:50:49.343Z,56.10
2022-10-08T10:51:41.170Z,56.00
2022-10-08T10:52:32.945Z,56.00
2022-10-08T10:53:24.739Z,56.60
2022-10-08T10:54:16.544Z,56.30
2022-10-08T10:55:08.339Z,55.40
2022-10-08T10:56:00.139Z,55.20
2022-10-08T10:56:51.942Z,55.10
2022-10-08T10:57:43.637Z,55.40
2022-10-08T10:58:35.543Z,55.30
2022-10-08T10:59:27.336Z,54.90
2022-10-08T11:00:19.153Z,54.50
2022-10-08T11:01:11.003Z,54.50
2022-10-08T11:02:02.772Z,54.80
2022-10-08T11:02:54.638Z,54.50
2022-10-08T11:03:46.385Z,54.50
2022-10-08T11:04:38.160Z,54.50
2022-10-08T11:05:29.984Z,55.10
2022-10-08T11:06:21.791Z,54.70